Time;durP1;ratioP1;P1;durP2;ratioP2;P2;SDS_P1;SDS_P2;PMS_P1;PMS_P2;Temp;Humidity;BMP_temperature;BMP_pressure;BME280_temperature;BME280_humidity;BME280_pressure;Samples;Min_cycle;Max_cycle;Signal;HPM_P1;HPM_P2
2024/04/13 00:00:47;;;;;;;5.03;2.53;;;;;;;23.06;45.10;102486.94;5379997;26;20023;-67
2024/04/13 00:03:12;;;;;;;3.22;2.20;;;;;;;23.03;45.26;102490.03;5351694;26;20016;-67
2024/04/13 00:05:38;;;;;;;6.38;3.33;;;;;;;23.01;45.30;102494.81;5380992;26;20380;-67
2024/04/13 00:08:04;;;;;;;7.55;3.97;;;;;;;23.00;45.46;102484.88;5342623;26;20016;-67
2024/04/13 00:10:30;;;;;;;4.45;2.97;;;;;;;23.04;45.51;102482.69;5381161;26;20352;-67
2024/04/13 00:12:56;;;;;;;7.78;3.08;;;;;;;23.02;45.32;102480.13;5381177;26;20367;-66
2024/04/13 00:15:21;;;;;;;5.10;3.33;;;;;;;22.99;45.76;102479.59;5351734;26;20464;-67
2024/04/13 00:17:47;;;;;;;7.97;3.33;;;;;;;22.98;45.54;102480.63;5381064;26;20411;-66
2024/04/13 00:20:13;;;;;;;9.55;3.33;;;;;;;22.93;45.54;102475.69;5320461;26;20005;-67
2024/04/13 00:22:39;;;;;;;7.97;3.13;;;;;;;22.92;45.50;102481.31;5352466;26;20019;-67
2024/04/13 00:25:05;;;;;;;8.27;2.83;;;;;;;22.92;45.73;102481.31;5323654;26;20111;-66
2024/04/13 00:27:31;;;;;;;4.20;3.22;;;;;;;22.91;45.85;102488.66;5383487;26;20056;-67
2024/04/13 00:29:59;;;;;;;14.63;3.85;;;;;;;22.91;45.86;102482.34;5381538;26;20000;-67
2024/04/13 00:32:25;;;;;;;11.38;3.55;;;;;;;22.90;45.54;102480.63;5383271;26;20069;-67
2024/04/13 00:34:52;;;;;;;5.78;3.15;;;;;;;22.89;45.75;102484.41;5381566;26;20011;-67
2024/04/13 00:37:18;;;;;;;11.80;3.22;;;;;;;22.86;46.02;102477.41;5381571;26;20004;-66
2024/04/13 00:39:43;;;;;;;7.82;3.58;;;;;;;22.87;45.96;102470.03;5383419;26;20328;-67
2024/04/13 00:42:09;;;;;;;4.68;2.42;;;;;;;22.87;45.97;102470.88;5381812;26;20004;-66
2024/04/13 00:44:35;;;;;;;3.85;2.70;;;;;;;22.83;45.89;102466.78;5352462;26;20100;-67
2024/04/13 00:47:06;;;;;;;5.95;2.67;;;;;;;22.84;46.42;102475.81;5352558;26;19996;-67
2024/04/13 00:49:38;;;;;;;6.25;2.58;;;;;;;22.84;45.95;102470.34;5353975;26;20004;-66
2024/04/13 00:52:07;;;;;;;5.32;2.40;;;;;;;22.79;46.19;102465.41;5381162;26;20016;-66
2024/04/13 00:54:34;;;;;;;7.32;2.67;;;;;;;22.82;46.55;102469.69;5381269;26;20005;-67
2024/04/13 00:56:59;;;;;;;5.20;2.53;;;;;;;22.79;46.07;102461.81;5352211;26;19996;-67
2024/04/13 00:59:25;;;;;;;6.18;3.33;;;;;;;22.79;45.90;102462.69;5383122;26;20001;-67
2024/04/13 01:01:52;;;;;;;13.25;3.72;;;;;;;22.77;46.17;102461.13;5381289;26;20000;-67
2024/04/13 01:04:18;;;;;;;6.50;2.83;;;;;;;22.78;46.32;102460.97;5352120;26;20008;-67
2024/04/13 01:06:49;;;;;;;7.18;2.80;;;;;;;22.76;46.48;102459.41;5381438;26;20064;-67
2024/04/13 01:09:16;;;;;;;4.65;2.35;;;;;;;22.72;46.36;102458.06;5383958;26;20003;-67
2024/04/13 01:11:42;;;;;;;4.28;2.35;;;;;;;22.72;46.21;102455.34;5381925;26;20015;-67
2024/04/13 01:14:10;;;;;;;4.18;3.22;;;;;;;22.71;46.01;102456.34;5353400;26;20011;-72
2024/04/13 01:16:36;;;;;;;8.25;2.97;;;;;;;22.71;46.46;102459.06;5352460;26;20007;-67
2024/04/13 01:19:02;;;;;;;6.63;2.88;;;;;;;22.71;46.14;102456.34;5351848;26;20000;-68
2024/04/13 01:21:28;;;;;;;3.65;2.40;;;;;;;22.65;46.29;102448.81;5351574;26;20100;-66
2024/04/13 01:24:05;;;;;;;9.30;3.17;;;;;;;22.68;46.19;102470.34;5351283;26;20000;-66
2024/04/13 01:26:38;;;;;;;6.32;2.85;;;;;;;22.68;46.62;102471.19;5323488;26;20004;-67
2024/04/13 01:29:05;;;;;;;5.00;2.80;;;;;;;22.67;46.59;102468.66;5352159;26;20329;-66
2024/04/13 01:31:33;;;;;;;3.75;2.72;;;;;;;22.64;46.48;102469.00;5351920;26;20004;-67
2024/04/13 01:33:59;;;;;;;5.47;2.80;;;;;;;22.63;46.32;102468.09;5380927;26;20016;-68
2024/04/13 01:36:26;;;;;;;6.07;3.00;;;;;;;22.62;46.63;102455.44;5380671;26;20517;-66
2024/04/13 01:38:52;;;;;;;5.05;2.78;;;;;;;22.58;46.64;102465.84;5380766;26;19997;-67
2024/04/13 01:41:18;;;;;;;7.45;3.35;;;;;;;22.58;46.52;102463.13;5322778;26;20328;-66
2024/04/13 01:43:43;;;;;;;11.35;3.10;;;;;;;22.54;46.74;102460.91;5351672;26;20000;-67
2024/04/13 01:46:09;;;;;;;9.55;3.38;;;;;;;22.51;46.82;102459.34;5351804;26;20015;-66
2024/04/13 01:48:34;;;;;;;6.72;2.88;;;;;;;22.48;46.94;102453.38;5380689;26;19997;-66
2024/04/13 01:51:00;;;;;;;10.32;3.00;;;;;;;22.48;46.53;102458.81;5380344;26;19996;-66
2024/04/13 01:53:26;;;;;;;10.35;4.40;;;;;;;22.44;46.73;102447.41;5351567;26;20008;-66
2024/04/13 01:55:52;;;;;;;4.88;2.92;;;;;;;22.44;47.08;102452.88;5380618;26;20004;-67
2024/04/13 01:58:17;;;;;;;7.78;2.80;;;;;;;22.40;46.60;102445.16;5380133;26;20034;-66
2024/04/13 02:00:43;;;;;;;6.15;3.10;;;;;;;22.41;46.73;102439.53;5351405;26;20008;-67
2024/04/13 02:03:08;;;;;;;4.60;2.47;;;;;;;22.40;47.03;102442.41;5380584;26;20000;-66
2024/04/13 02:05:35;;;;;;;6.05;3.13;;;;;;;22.39;47.19;102436.09;5382264;26;20440;-67
2024/04/13 02:08:01;;;;;;;7.28;2.78;;;;;;;22.37;47.13;102431.81;5351526;26;20004;-67
2024/04/13 02:10:26;;;;;;;9.07;2.97;;;;;;;22.38;47.09;102436.28;5380228;26;19996;-66
2024/04/13 02:12:52;;;;;;;5.78;2.63;;;;;;;22.35;46.67;102426.56;5382256;26;20077;-67
2024/04/13 02:15:17;;;;;;;9.60;3.05;;;;;;;22.38;46.84;102428.94;5351278;26;20004;-66
2024/04/13 02:17:43;;;;;;;4.18;3.30;;;;;;;22.37;47.24;102424.50;5350861;26;20344;-67
2024/04/13 02:20:14;;;;;;;8.88;3.05;;;;;;;22.38;46.97;102431.69;5380439;26;20015;-66
2024/04/13 02:22:40;;;;;;;8.68;3.03;;;;;;;22.36;47.23;102439.16;5378878;26;20016;-66
2024/04/13 02:25:08;;;;;;;7.57;3.20;;;;;;;22.37;46.80;102435.41;5381715;26;20078;-67
2024/04/13 02:27:34;;;;;;;12.18;3.63;;;;;;;22.38;47.03;102437.13;5351485;26;19996;-67
2024/04/13 02:29:59;;;;;;;8.10;3.00;;;;;;;22.37;47.11;102434.56;5351068;26;20002;-65
2024/04/13 02:32:25;;;;;;;6.72;3.03;;;;;;;22.35;46.81;102429.28;5350544;26;20004;-64
2024/04/13 02:34:50;;;;;;;6.30;3.10;;;;;;;22.36;47.03;102433.69;5322171;26;20065;-65
2024/04/13 02:37:16;;;;;;;5.63;3.35;;;;;;;22.34;47.02;102424.84;5381292;26;20005;-64
2024/04/13 02:39:42;;;;;;;10.32;2.83;;;;;;;22.35;47.05;102421.09;5380806;26;20003;-65
2024/04/13 02:42:07;;;;;;;6.50;3.05;;;;;;;22.32;47.14;102421.41;5379571;26;20445;-65
2024/04/13 02:44:32;;;;;;;5.05;3.03;;;;;;;22.32;47.07;102413.22;5350486;26;19997;-69
2024/04/13 02:46:58;;;;;;;6.72;3.20;;;;;;;22.29;47.07;102402.63;5350589;26;20010;-69
2024/04/13 02:49:23;;;;;;;5.30;3.00;;;;;;;22.28;46.95;102409.09;5350627;26;20008;-70
2024/04/13 02:51:49;;;;;;;6.38;3.08;;;;;;;22.27;47.11;102399.22;5379732;26;20354;-69
2024/04/13 02:54:14;;;;;;;8.32;3.28;;;;;;;22.26;47.21;102404.84;5350614;26;19992;-69
2024/04/13 02:56:40;;;;;;;3.55;2.50;;;;;;;22.23;47.10;102400.56;5379837;26;19997;-69
2024/04/13 02:59:06;;;;;;;7.82;2.85;;;;;;;22.22;47.06;102404.31;5350490;26;20023;-69
2024/04/13 03:01:32;;;;;;;3.58;2.55;;;;;;;22.19;47.14;102393.75;5350959;26;20007;-69
2024/04/13 03:03:58;;;;;;;5.88;3.65;;;;;;;22.19;47.16;102404.66;5350325;26;20330;-70
2024/04/13 03:06:23;;;;;;;4.88;2.90;;;;;;;22.17;47.36;102400.38;5379547;26;20004;-70
2024/04/13 03:08:50;;;;;;;5.20;2.85;;;;;;;22.17;46.93;102403.97;5350412;26;19996;-70
2024/04/13 03:11:17;;;;;;;11.57;4.10;;;;;;;22.16;47.10;102406.88;5379531;26;20004;-70
2024/04/13 03:13:43;;;;;;;9.65;3.50;;;;;;;22.14;47.03;102409.75;5379565;26;20074;-70
2024/04/13 03:16:09;;;;;;;8.27;3.40;;;;;;;22.13;47.31;102409.94;5350265;26;20000;-70
2024/04/13 03:18:40;;;;;;;4.80;3.33;;;;;;;22.09;47.13;102406.66;5379154;26;19996;-70
2024/04/13 03:21:06;;;;;;;7.05;4.57;;;;;;;22.10;47.16;102404.78;5321919;26;20436;-70
2024/04/13 03:23:33;;;;;;;7.47;3.05;;;;;;;22.06;47.22;102393.34;5350338;26;20341;-69
2024/04/13 03:25:59;;;;;;;4.68;2.40;;;;;;;22.07;47.57;102395.06;5349730;26;20015;-70
2024/04/13 03:28:28;;;;;;;5.68;3.05;;;;;;;22.07;47.24;102408.72;5378927;26;20004;-70
2024/04/13 03:30:53;;;;;;;4.30;3.25;;;;;;;22.04;47.45;102400.84;5378723;26;20004;-70
2024/04/13 03:33:18;;;;;;;5.97;2.92;;;;;;;21.97;47.16;102391.63;5378598;26;20475;-70
2024/04/13 03:35:46;;;;;;;6.75;3.78;;;;;;;21.98;47.06;102386.00;5382527;26;19996;-70
2024/04/13 03:38:13;;;;;;;5.97;2.95;;;;;;;21.99;47.43;102395.03;5353890;26;20000;-70
2024/04/13 03:40:38;;;;;;;5.72;2.92;;;;;;;21.96;47.30;102393.50;5352884;26;20008;-70
2024/04/13 03:43:04;;;;;;;6.30;2.92;;;;;;;21.97;47.20;102399.81;5382361;26;20008;-70
2024/04/13 03:45:29;;;;;;;8.65;3.17;;;;;;;21.94;47.04;102395.53;5382091;26;19996;-70
2024/04/13 03:47:55;;;;;;;9.95;3.53;;;;;;;21.89;47.23;102391.56;5352777;26;20467;-70
2024/04/13 03:50:21;;;;;;;6.78;3.30;;;;;;;21.87;47.19;102393.63;5382064;26;20069;-70
2024/04/13 03:52:47;;;;;;;4.63;2.70;;;;;;;21.84;47.18;102393.91;5353362;26;20032;-70
2024/04/13 03:55:12;;;;;;;8.18;3.30;;;;;;;21.77;47.08;102391.00;5382439;26;20000;-65
2024/04/13 03:57:38;;;;;;;5.20;3.10;;;;;;;21.80;47.13;102403.47;5382245;26;20016;-65
2024/04/13 04:00:06;;;;;;;5.22;3.13;;;;;;;21.76;47.04;102402.06;5384080;26;20073;-66
2024/04/13 04:02:36;;;;;;;5.60;2.80;;;;;;;21.71;46.93;102407.16;5355722;26;20039;-65
2024/04/13 04:05:02;;;;;;;8.85;3.55;;;;;;;21.67;47.05;102408.50;5382067;26;20360;-65
2024/04/13 04:07:28;;;;;;;9.52;3.22;;;;;;;21.63;47.40;102412.59;5352950;26;20004;-65
2024/04/13 04:09:54;;;;;;;6.55;3.00;;;;;;;21.57;47.25;102405.06;5382363;26;20440;-65
2024/04/13 04:12:19;;;;;;;9.07;3.35;;;;;;;21.53;47.11;102401.78;5382429;26;20344;-67
2024/04/13 04:14:44;;;;;;;4.47;2.65;;;;;;;21.48;47.03;102407.72;5382187;26;20339;-66
2024/04/13 04:17:10;;;;;;;4.60;2.60;;;;;;;21.41;47.03;102414.84;5381881;26;20007;-65
2024/04/13 04:19:35;;;;;;;4.20;2.88;;;;;;;21.33;47.41;102403.03;5352552;26;20410;-65
2024/04/13 04:22:01;;;;;;;7.25;3.50;;;;;;;21.30;47.23;102404.19;5381894;26;20449;-65
2024/04/13 04:24:26;;;;;;;8.45;3.03;;;;;;;21.25;47.11;102405.69;5381987;26;20015;-64
2024/04/13 04:26:52;;;;;;;8.05;3.63;;;;;;;21.20;47.06;102406.19;5381990;26;20008;-65
2024/04/13 04:29:17;;;;;;;6.55;3.05;;;;;;;21.18;47.07;102413.69;5384083;26;20004;-64
2024/04/13 04:31:43;;;;;;;6.32;3.42;;;;;;;21.15;47.12;102421.31;5381804;26;20004;-65
2024/04/13 04:34:09;;;;;;;5.40;3.25;;;;;;;21.12;47.13;102427.94;5352736;26;20460;-64
2024/04/13 04:36:34;;;;;;;8.95;2.70;;;;;;;21.09;47.04;102420.06;5381996;26;20019;-65
2024/04/13 04:39:00;;;;;;;5.50;3.00;;;;;;;21.06;47.09;102414.91;5352631;26;20008;-65
2024/04/13 04:41:29;;;;;;;5.43;3.70;;;;;;;21.04;47.39;102425.13;5382939;26;20016;-65
2024/04/13 04:43:54;;;;;;;5.18;3.50;;;;;;;21.00;47.37;102420.97;5353365;26;20004;-65
2024/04/13 04:46:21;;;;;;;6.90;3.25;;;;;;;20.96;47.67;102416.88;5380973;26;19996;-64
2024/04/13 04:48:50;;;;;;;5.20;2.53;;;;;;;20.93;47.64;102419.91;5352351;26;20011;-66
2024/04/13 04:51:20;;;;;;;8.77;3.20;;;;;;;20.93;47.42;102417.19;5381266;26;20185;-65
2024/04/13 04:53:45;;;;;;;4.70;2.45;;;;;;;20.88;47.40;102414.09;5323780;26;20019;-65
2024/04/13 04:56:11;;;;;;;6.78;3.92;;;;;;;20.87;47.14;102415.09;5352382;26;19997;-64
2024/04/13 04:58:36;;;;;;;3.92;2.90;;;;;;;20.85;47.51;102420.69;5381428;26;20085;-64
2024/04/13 05:01:03;;;;;;;7.35;2.80;;;;;;;20.87;47.35;102424.13;5381513;26;20441;-65
2024/04/13 05:03:29;;;;;;;7.38;2.80;;;;;;;20.88;47.49;102419.53;5381412;26;20035;-64
2024/04/13 05:05:54;;;;;;;5.47;3.13;;;;;;;20.90;47.41;102420.22;5323665;26;20004;-64
2024/04/13 05:08:20;;;;;;;3.45;2.33;;;;;;;20.90;47.32;102414.78;5381187;26;20012;-65
2024/04/13 05:10:47;;;;;;;8.90;3.22;;;;;;;20.94;47.53;102416.16;5381342;26;20015;-65
2024/04/13 05:13:13;;;;;;;8.50;3.00;;;;;;;20.98;47.30;102423.03;5383110;26;20000;-65
2024/04/13 05:15:40;;;;;;;8.82;3.28;;;;;;;21.00;47.58;102415.53;5352064;26;20010;-65
2024/04/13 05:18:06;;;;;;;8.32;3.60;;;;;;;21.05;47.38;102421.34;5383092;26;20000;-64
2024/04/13 05:20:31;;;;;;;8.70;2.63;;;;;;;21.07;47.76;102413.03;5381057;26;20004;-65
2024/04/13 05:22:58;;;;;;;9.63;2.92;;;;;;;21.15;47.61;102411.28;5352116;26;20019;-65
2024/04/13 05:25:24;;;;;;;7.78;3.22;;;;;;;21.19;47.56;102407.19;5383322;26;20004;-65
2024/04/13 05:27:49;;;;;;;8.10;3.03;;;;;;;21.28;47.69;102402.66;5352034;26;20015;-65
2024/04/13 05:30:15;;;;;;;4.60;3.08;;;;;;;21.36;47.79;102411.75;5381168;26;20402;-65
2024/04/13 05:32:40;;;;;;;7.07;2.85;;;;;;;21.45;47.90;102409.91;5351863;26;20423;-66
2024/04/13 05:35:06;;;;;;;10.13;3.30;;;;;;;21.53;47.92;102401.78;5380916;26;20027;-66
2024/04/13 05:37:32;;;;;;;4.93;2.72;;;;;;;21.65;47.89;102405.09;5381083;26;20081;-65
2024/04/13 05:39:58;;;;;;;4.05;2.70;;;;;;;21.77;47.81;102401.06;5351617;26;20004;-66
2024/04/13 05:42:23;;;;;;;5.05;3.05;;;;;;;21.93;47.82;102403.88;5380836;26;20015;-65
2024/04/13 05:44:49;;;;;;;6.30;3.20;;;;;;;22.00;47.57;102403.06;5380826;26;20004;-65
2024/04/13 05:47:14;;;;;;;4.93;2.42;;;;;;;22.15;47.67;102407.88;5351691;26;19997;-66
2024/04/13 05:49:40;;;;;;;5.35;2.65;;;;;;;22.23;48.15;102397.84;5322730;26;19997;-65
2024/04/13 05:52:06;;;;;;;4.50;2.33;;;;;;;22.36;47.34;102394.66;5380524;26;20456;-66
2024/04/13 05:54:32;;;;;;;4.57;2.38;;;;;;;22.43;47.48;102391.06;5351330;26;20021;-65
2024/04/13 05:56:58;;;;;;;4.97;2.92;;;;;;;22.55;47.31;102397.91;5379262;26;20440;-66
2024/04/13 05:59:23;;;;;;;4.18;2.88;;;;;;;22.61;47.70;102391.75;5379892;26;20356;-65
2024/04/13 06:01:49;;;;;;;6.47;2.60;;;;;;;22.68;46.87;102385.66;5379909;26;20019;-65
2024/04/13 06:04:14;;;;;;;3.58;2.22;;;;;;;22.77;47.00;102392.81;5350940;26;20011;-65
2024/04/13 06:06:40;;;;;;;6.50;2.33;;;;;;;22.87;47.32;102390.75;5351069;26;20011;-65
2024/04/13 06:09:07;;;;;;;4.95;2.63;;;;;;;22.93;47.14;102381.88;5381886;26;20007;-65
2024/04/13 06:11:33;;;;;;;7.60;3.45;;;;;;;22.97;47.30;102378.66;5381927;26;20000;-65
2024/04/13 06:13:58;;;;;;;4.60;2.88;;;;;;;23.03;47.41;102382.59;5381781;26;20057;-67
2024/04/13 06:16:24;;;;;;;12.60;3.30;;;;;;;23.10;46.84;102381.72;5350929;26;19996;-65
2024/04/13 06:18:50;;;;;;;5.13;3.03;;;;;;;23.18;46.93;102389.91;5351137;26;20051;-65
2024/04/13 06:21:16;;;;;;;4.22;2.78;;;;;;;23.28;47.12;102391.59;5329407;26;20000;-65
2024/04/13 06:23:41;;;;;;;7.50;3.30;;;;;;;23.35;47.25;102393.44;5345482;26;19996;-66
2024/04/13 06:26:07;;;;;;;13.57;2.65;;;;;;;23.38;47.02;102371.25;5316938;26;19997;-66
2024/04/13 06:28:33;;;;;;;7.72;2.30;;;;;;;23.46;47.08;102373.97;5345918;26;20136;-67
2024/04/13 06:30:58;;;;;;;4.03;2.38;;;;;;;23.56;46.82;102382.81;5346352;26;20012;-65
2024/04/13 06:33:24;;;;;;;5.57;3.00;;;;;;;23.64;46.80;102374.59;5317681;26;20453;-66
2024/04/13 06:35:50;;;;;;;5.28;2.42;;;;;;;23.72;47.02;102374.56;5374211;26;20015;-65
2024/04/13 06:38:23;;;;;;;4.75;2.22;;;;;;;23.80;46.90;102370.94;5346674;26;19997;-66
2024/04/13 06:40:53;;;;;;;8.95;2.30;;;;;;;23.96;46.20;102375.47;5344929;26;20079;-65
2024/04/13 06:43:19;;;;;;;5.00;2.60;;;;;;;24.07;46.22;102378.66;5316183;26;20529;-66
2024/04/13 06:45:48;;;;;;;4.20;2.17;;;;;;;24.21;46.25;102366.97;5316121;26;20078;-66
2024/04/13 06:48:14;;;;;;;8.73;2.50;;;;;;;24.40;46.02;102368.38;5344673;26;20001;-66
2024/04/13 06:50:42;;;;;;;5.25;2.83;;;;;;;24.55;45.65;102372.03;5373298;26;19997;-66
2024/04/13 06:53:07;;;;;;;7.18;1.90;;;;;;;24.67;45.52;102370.59;5344648;26;20029;-66
2024/04/13 06:55:33;;;;;;;5.63;2.63;;;;;;;24.81;45.32;102371.69;5344692;26;20013;-65
2024/04/13 06:57:59;;;;;;;3.33;2.03;;;;;;;24.91;45.49;102369.53;5344396;26;19997;-66
2024/04/13 07:00:25;;;;;;;3.25;2.00;;;;;;;24.99;45.47;102374.06;5287131;26;20023;-65
2024/04/13 07:02:50;;;;;;;6.57;2.42;;;;;;;25.13;45.36;102371.38;5381906;26;20467;-67
2024/04/13 07:05:16;;;;;;;4.78;2.35;;;;;;;25.26;45.06;102373.47;5321593;26;20004;-65
2024/04/13 07:07:42;;;;;;;5.50;2.28;;;;;;;25.39;44.71;102376.41;5379321;26;20000;-66
2024/04/13 07:10:07;;;;;;;3.90;2.20;;;;;;;25.54;44.59;102380.06;5383832;26;20011;-66
2024/04/13 07:12:33;;;;;;;5.22;2.13;;;;;;;25.70;44.86;102368.88;5353285;26;20402;-67
2024/04/13 07:14:59;;;;;;;4.18;2.15;;;;;;;25.86;44.41;102370.56;5382601;26;20004;-67
2024/04/13 07:17:24;;;;;;;9.30;2.90;;;;;;;26.00;44.14;102359.53;5384443;26;20000;-66
2024/04/13 07:19:50;;;;;;;3.20;2.30;;;;;;;26.17;44.03;102367.56;5382437;26;20325;-67
2024/04/13 07:22:16;;;;;;;4.00;2.03;;;;;;;26.34;43.99;102355.31;5324481;26;20019;-66
2024/04/13 07:24:42;;;;;;;4.47;2.05;;;;;;;26.46;43.65;102354.59;5382478;26;20436;-66
2024/04/13 07:27:07;;;;;;;4.15;2.15;;;;;;;26.59;43.88;102353.88;5353109;26;20019;-66
2024/04/13 07:29:33;;;;;;;4.93;2.53;;;;;;;26.67;43.72;102355.63;5352912;26;19996;-68
2024/04/13 07:31:58;;;;;;;5.75;3.10;;;;;;;26.78;43.54;102352.34;5384019;26;20016;-67
2024/04/13 07:34:24;;;;;;;6.38;2.60;;;;;;;26.94;43.29;102360.34;5383971;26;20012;-71
2024/04/13 07:36:49;;;;;;;6.68;2.20;;;;;;;27.14;43.10;102353.94;5382313;26;20000;-71
2024/04/13 07:39:14;;;;;;;3.78;1.90;;;;;;;27.32;42.28;102355.31;5353249;26;20005;-71
2024/04/13 07:41:40;;;;;;;6.22;2.10;;;;;;;27.39;42.66;102351.56;5383393;26;20077;-71
2024/04/13 07:44:06;;;;;;;5.97;2.17;;;;;;;27.49;42.46;102342.97;5382169;26;20064;-72
2024/04/13 07:46:32;;;;;;;5.60;2.30;;;;;;;27.57;42.50;102338.16;5382313;26;20001;-71
2024/04/13 07:48:58;;;;;;;6.38;2.20;;;;;;;27.65;42.15;102343.47;5384128;26;20044;-72
2024/04/13 07:51:24;;;;;;;3.03;2.25;;;;;;;27.73;42.12;102342.44;5381458;26;20027;-72
2024/04/13 07:53:49;;;;;;;6.72;2.40;;;;;;;27.85;42.26;102339.97;5384230;26;20004;-70
2024/04/13 07:56:15;;;;;;;3.75;2.60;;;;;;;27.97;41.93;102330.91;5353112;26;20008;-71
2024/04/13 07:58:41;;;;;;;4.93;2.05;;;;;;;28.03;41.42;102332.03;5352452;26;20000;-71
2024/04/13 08:01:06;;;;;;;4.40;2.05;;;;;;;28.16;41.54;102330.16;5352455;26;20076;-71
2024/04/13 08:03:32;;;;;;;6.43;2.40;;;;;;;28.20;41.43;102331.41;5381555;26;20340;-71
2024/04/13 08:05:57;;;;;;;5.75;1.92;;;;;;;28.25;41.08;102331.63;5383628;26;19996;-70
2024/04/13 08:08:23;;;;;;;8.90;2.75;;;;;;;28.36;40.64;102326.56;5352813;26;20007;-71
2024/04/13 08:10:48;;;;;;;6.43;2.35;;;;;;;28.49;40.87;102329.34;5383684;26;20001;-73
2024/04/13 08:13:15;;;;;;;5.97;2.17;;;;;;;28.63;40.71;102328.31;5381840;26;20000;-72
2024/04/13 08:15:41;;;;;;;2.78;1.95;;;;;;;28.73;40.79;102325.97;5382002;26;20019;-71
2024/04/13 08:18:07;;;;;;;5.53;2.50;;;;;;;28.85;40.31;102318.75;5381695;26;20456;-71
2024/04/13 08:20:33;;;;;;;6.50;1.90;;;;;;;29.03;40.58;102318.13;5351084;26;20036;-73
2024/04/13 08:22:59;;;;;;;6.82;2.22;;;;;;;29.16;39.92;102324.47;5381698;26;19992;-73
2024/04/13 08:25:25;;;;;;;9.63;2.70;;;;;;;29.26;40.11;102310.22;5352670;26;20015;-73
2024/04/13 08:27:50;;;;;;;9.63;2.50;;;;;;;29.44;40.23;102319.53;5381452;26;19989;-73
2024/04/13 08:30:16;;;;;;;7.40;2.20;;;;;;;29.70;39.61;102320.50;5352467;26;20004;-72
2024/04/13 08:32:45;;;;;;;7.65;2.60;;;;;;;29.89;39.61;102309.41;5323257;26;20051;-73
2024/04/13 08:35:10;;;;;;;2.72;1.77;;;;;;;30.03;38.97;102321.22;5381375;26;20081;-73
2024/04/13 08:37:36;;;;;;;8.02;2.67;;;;;;;30.11;38.76;102318.19;5346948;26;20008;-72
2024/04/13 08:40:02;;;;;;;2.88;1.77;;;;;;;30.21;39.21;102307.50;5317263;26;20067;-70
2024/04/13 08:42:39;;;;;;;4.10;2.17;;;;;;;30.25;38.53;102303.22;5375221;26;20341;-71
2024/04/13 08:45:09;;;;;;;5.05;2.25;;;;;;;30.32;38.42;102304.00;5317177;26;20001;-69
2024/04/13 08:47:36;;;;;;;2.95;1.67;;;;;;;30.45;38.71;102303.97;5317242;26;20001;-68
2024/04/13 08:50:03;;;;;;;4.30;2.50;;;;;;;30.59;38.55;102310.22;5345548;26;20533;-70
2024/04/13 08:52:32;;;;;;;5.10;2.10;;;;;;;30.84;38.33;102307.47;5358264;26;20015;-70
2024/04/13 08:54:58;;;;;;;23.80;4.90;;;;;;;31.02;37.97;102310.28;5351747;26;20004;-71
2024/04/13 08:57:25;;;;;;;6.15;2.25;;;;;;;31.16;37.89;102306.31;5351869;26;20459;-67
2024/04/13 08:59:55;;;;;;;865.10;199.57;;;;;;;31.13;37.75;102299.31;5351497;26;20448;-70
2024/04/13 09:02:25;;;;;;;33.30;10.10;;;;;;;31.14;37.90;102294.63;5352020;26;20004;-71
2024/04/13 09:04:51;;;;;;;8.35;3.50;;;;;;;31.07;37.79;102296.63;5343755;26;20000;-72
2024/04/13 09:07:20;;;;;;;3.35;2.33;;;;;;;31.00;37.63;102301.38;5352266;26;20000;-70
2024/04/13 09:09:49;;;;;;;5.35;2.38;;;;;;;31.23;37.40;102293.25;5380644;26;20078;-68
2024/04/13 09:12:15;;;;;;;4.50;1.92;;;;;;;31.42;37.31;102300.47;5380689;26;20008;-70
2024/04/13 09:14:41;;;;;;;3.25;2.13;;;;;;;31.57;37.35;102292.66;5351788;26;19997;-69
2024/04/13 09:17:06;;;;;;;6.35;2.03;;;;;;;31.76;37.04;102287.94;5351396;26;20336;-70
2024/04/13 09:19:32;;;;;;;5.28;2.17;;;;;;;31.95;36.88;102283.19;5351169;26;20467;-70
2024/04/13 09:21:58;;;;;;;5.35;2.25;;;;;;;31.99;36.64;102281.63;5351262;26;19997;-69
2024/04/13 09:24:23;;;;;;;5.45;2.63;;;;;;;32.03;36.92;102269.84;5351458;26;20004;-70
2024/04/13 09:26:50;;;;;;;2.92;1.98;;;;;;;32.09;36.59;102276.38;5380294;26;20019;-70
2024/04/13 09:29:28;;;;;;;7.00;2.70;;;;;;;32.09;36.43;102271.69;5351417;26;20000;-69
2024/04/13 09:31:54;;;;;;;3.85;1.80;;;;;;;32.20;36.61;102264.47;5380923;26;20000;-70
2024/04/13 09:34:20;;;;;;;12.48;2.00;;;;;;;32.44;36.49;102276.50;5351767;26;20000;-70
2024/04/13 09:36:47;;;;;;;6.18;2.58;;;;;;;32.54;35.78;102276.75;5351362;26;20448;-70
2024/04/13 09:39:19;;;;;;;4.68;1.83;;;;;;;32.60;35.78;102260.00;5380609;26;20480;-69
2024/04/13 09:41:45;;;;;;;2.15;1.95;;;;;;;32.53;35.76;102264.78;5382359;26;20015;-70
2024/04/13 09:44:10;;;;;;;6.60;2.15;;;;;;;32.52;35.79;102252.00;5350843;26;20000;-70
2024/04/13 09:46:36;;;;;;;5.47;2.10;;;;;;;32.84;35.44;102252.50;5380220;26;20341;-68
2024/04/13 09:49:02;;;;;;;4.85;2.38;;;;;;;33.34;35.17;102256.47;5351420;26;20348;-70
2024/04/13 09:51:28;;;;;;;4.43;2.25;;;;;;;33.85;34.71;102252.81;5380486;26;20011;-68
2024/04/13 09:53:54;;;;;;;4.65;2.10;;;;;;;34.65;33.67;102255.38;5380408;26;20026;-70
2024/04/13 09:56:20;;;;;;;4.55;2.38;;;;;;;35.05;32.90;102255.97;5322662;26;20000;-69
2024/04/13 09:58:50;;;;;;;4.75;2.33;;;;;;;34.86;33.18;102254.59;5322138;26;20130;-70
2024/04/13 10:01:16;;;;;;;2.20;1.70;;;;;;;34.60;33.56;102230.22;5380623;26;20038;-70
2024/04/13 10:03:42;;;;;;;4.57;2.10;;;;;;;34.62;33.04;102239.16;5380363;26;20004;-70
2024/04/13 10:06:11;;;;;;;4.95;2.08;;;;;;;34.51;33.50;102240.06;5379740;26;20116;-72
2024/04/13 10:08:39;;;;;;;4.03;2.30;;;;;;;34.38;33.65;102223.72;5350721;26;20073;-72
2024/04/13 10:11:05;;;;;;;8.27;3.03;;;;;;;34.31;33.15;102207.19;5382171;26;20000;-72
2024/04/13 10:13:37;;;;;;;3.25;2.60;;;;;;;34.41;33.41;102212.06;5350702;26;20000;-71
2024/04/13 10:16:03;;;;;;;5.85;2.33;;;;;;;34.39;33.27;102214.28;5379906;26;20463;-71
2024/04/13 10:18:29;;;;;;;3.17;2.03;;;;;;;34.37;33.69;102208.94;5379775;26;20386;-71
2024/04/13 10:21:05;;;;;;;3.15;2.13;;;;;;;34.36;33.23;102200.88;5379757;26;20076;-71
2024/04/13 10:23:41;;;;;;;5.63;2.95;;;;;;;34.74;32.63;102198.13;5322116;26;20000;-70
2024/04/13 10:26:06;;;;;;;3.47;1.80;;;;;;;35.27;32.74;102199.44;5350597;26;20081;-71
2024/04/13 10:28:32;;;;;;;2.97;2.00;;;;;;;35.69;32.21;102188.50;5350241;26;20000;-71
2024/04/13 10:30:57;;;;;;;6.70;2.17;;;;;;;35.95;32.05;102182.06;5381335;26;20070;-72
2024/04/13 10:33:30;;;;;;;6.97;1.80;;;;;;;36.20;31.91;102176.75;5379491;26;20007;-72
2024/04/13 10:36:04;;;;;;;5.38;1.98;;;;;;;36.36;31.56;102164.56;5379272;26;19996;-72
2024/04/13 10:38:31;;;;;;;2.88;1.40;;;;;;;36.60;31.30;102165.06;5350408;26;20001;-70
2024/04/13 10:40:57;;;;;;;3.25;1.90;;;;;;;36.47;31.51;102168.25;5350524;26;20015;-72
2024/04/13 10:43:24;;;;;;;2.95;1.60;;;;;;;36.77;31.46;102165.69;5350801;26;20007;-71
2024/04/13 10:45:50;;;;;;;4.78;1.52;;;;;;;36.86;31.05;102163.22;5383050;26;20000;-72
2024/04/13 10:48:22;;;;;;;3.17;1.70;;;;;;;36.93;30.68;102163.81;5412720;26;20547;-72
2024/04/13 10:50:48;;;;;;;3.10;2.00;;;;;;;37.30;30.61;102154.19;5382781;26;20015;-71
2024/04/13 10:53:15;;;;;;;5.97;1.90;;;;;;;37.56;30.08;102157.09;5353682;26;20339;-72
2024/04/13 10:55:40;;;;;;;4.70;1.30;;;;;;;37.60;30.27;102150.69;5383130;26;20015;-70
2024/04/13 10:58:07;;;;;;;2.33;1.17;;;;;;;37.56;30.08;102148.69;5383208;26;20001;-71
2024/04/13 11:00:32;;;;;;;4.45;1.60;;;;;;;37.53;29.84;102135.25;5353931;26;20435;-71
2024/04/13 11:02:58;;;;;;;4.25;1.60;;;;;;;37.44;30.10;102136.94;5382932;26;20000;-71
2024/04/13 11:05:23;;;;;;;3.40;1.52;;;;;;;37.09;29.93;102135.69;5382948;26;20036;-72
2024/04/13 11:07:51;;;;;;;8.02;2.15;;;;;;;37.11;30.16;102130.66;5353345;26;20004;-72
2024/04/13 11:10:17;;;;;;;3.72;1.33;;;;;;;37.25;29.51;102129.03;5354030;26;20000;-72
2024/04/13 11:12:43;;;;;;;3.53;1.67;;;;;;;37.37;29.67;102122.34;5382837;26;20325;-72
2024/04/13 11:15:08;;;;;;;3.70;1.42;;;;;;;37.38;29.76;102121.22;5382722;26;20019;-67
2024/04/13 11:17:34;;;;;;;6.97;1.88;;;;;;;37.36;30.13;102112.28;5353519;26;20011;-67
2024/04/13 11:20:00;;;;;;;5.13;2.47;;;;;;;37.36;29.23;102107.50;5384459;26;20087;-67